createdAt,value
2022-12-31T00:00:04.752Z,13.21
2022-12-31T00:01:05.546Z,13.17
2022-12-31T00:02:05.126Z,13.17
2022-12-31T00:03:05.180Z,13.17
2022-12-31T00:04:05.213Z,13.19
2022-12-31T00:05:05.346Z,13.19
2022-12-31T00:06:05.480Z,13.19
2022-12-31T00:07:05.677Z,13.22
2022-12-31T00:08:05.710Z,13.14
2022-12-31T00:09:05.839Z,13.14
2022-12-31T00:10:06.001Z,13.17
2022-12-31T00:11:06.145Z,13.21
2022-12-31T00:12:06.366Z,13.17
2022-12-31T00:13:06.388Z,13.16
2022-12-31T00:14:06.577Z,13.17
2022-12-31T00:15:06.665Z,13.13
2022-12-31T00:16:11.791Z,13.13
2022-12-31T00:17:07.958Z,13.13
2022-12-31T00:18:07.051Z,13.17
2022-12-31T00:19:07.204Z,13.22
2022-12-31T00:20:07.316Z,13.19
2022-12-31T00:21:07.453Z,13.19
2022-12-31T00:22:07.629Z,13.14
2022-12-31T00:23:07.643Z,13.16
2022-12-31T00:24:07.755Z,13.16
2022-12-31T00:25:07.852Z,13.17
2022-12-31T00:26:08.031Z,13.17
2022-12-31T00:27:08.110Z,13.19
2022-12-31T00:28:08.250Z,13.17
2022-12-31T00:29:08.341Z,13.22
2022-12-31T00:30:08.474Z,13.19
2022-12-31T00:31:08.717Z,13.17
2022-12-31T00:32:08.811Z,13.24
2022-12-31T00:33:08.903Z,13.25
2022-12-31T00:34:09.057Z,13.21
2022-12-31T00:35:09.171Z,13.14
2022-12-31T00:36:09.310Z,13.21
2022-12-31T00:37:09.464Z,13.21
2022-12-31T00:38:09.612Z,13.17
2022-12-31T00:39:09.786Z,13.19
2022-12-31T00:40:09.877Z,13.16
2022-12-31T00:41:11.461Z,13.12
2022-12-31T00:42:10.172Z,13.17
2022-12-31T00:43:10.270Z,13.17
2022-12-31T00:44:10.411Z,13.21
2022-12-31T00:45:10.561Z,13.21
2022-12-31T00:46:10.766Z,13.21
2022-12-31T00:47:10.857Z,13.21
2022-12-31T00:48:10.969Z,13.21
2022-12-31T00:49:11.109Z,13.17
2022-12-31T00:50:11.253Z,13.19
2022-12-31T00:51:11.410Z,13.16
2022-12-31T00:52:11.550Z,13.17
2022-12-31T00:53:11.723Z,13.19
2022-12-31T00:54:11.915Z,13.22
2022-12-31T00:55:11.970Z,13.24
2022-12-31T00:56:12.129Z,13.17
2022-12-31T00:57:12.219Z,13.17
2022-12-31T00:58:12.389Z,13.16
2022-12-31T00:59:12.481Z,13.17
2022-12-31T01:00:12.583Z,13.19
2022-12-31T01:01:12.872Z,13.17
2022-12-31T01:02:13.046Z,13.10
2022-12-31T01:03:12.992Z,13.09
2022-12-31T01:04:13.812Z,13.10
2022-12-31T01:05:13.960Z,13.10
2022-12-31T01:06:13.293Z,13.09
2022-12-31T01:07:13.440Z,13.07
2022-12-31T01:08:13.528Z,13.10
2022-12-31T01:09:13.685Z,13.07
2022-12-31T01:10:13.838Z,13.06
2022-12-31T01:11:14.013Z,13.07
2022-12-31T01:12:14.151Z,13.07
2022-12-31T01:13:14.301Z,13.04
2022-12-31T01:14:14.430Z,13.09
2022-12-31T01:15:14.567Z,13.01
2022-12-31T01:16:14.753Z,13.04
2022-12-31T01:17:14.867Z,13.04
2022-12-31T01:18:14.988Z,13.03
2022-12-31T01:19:15.151Z,13.01
2022-12-31T01:20:15.287Z,13.04
2022-12-31T01:21:15.425Z,13.04
2022-12-31T01:22:15.585Z,13.07
2022-12-31T01:23:15.718Z,13.03
2022-12-31T01:24:15.879Z,13.01
2022-12-31T01:25:16.008Z,13.06
2022-12-31T01:26:16.158Z,13.03
2022-12-31T01:27:16.349Z,13.03
2022-12-31T01:28:16.408Z,12.99
2022-12-31T01:29:16.535Z,12.98
2022-12-31T01:30:16.666Z,12.98
2022-12-31T01:31:16.837Z,12.98
2022-12-31T01:32:16.908Z,12.96
2022-12-31T01:33:17.039Z,12.96
2022-12-31T01:34:17.898Z,12.94
2022-12-31T01:35:17.295Z,12.95
2022-12-31T01:36:21.855Z,12.92
2022-12-31T01:37:18.569Z,12.94
2022-12-31T01:38:17.693Z,12.94
2022-12-31T01:39:17.819Z,12.94
2022-12-31T01:40:17.975Z,12.98
2022-12-31T01:41:18.864Z,13.01
2022-12-31T01:42:18.226Z,13.01
2022-12-31T01:43:18.376Z,13.03
2022-12-31T01:44:18.474Z,13.06
2022-12-31T01:45:18.595Z,13.03
2022-12-31T01:46:18.756Z,13.04
2022-12-31T01:47:18.883Z,13.04
2022-12-31T01:48:19.017Z,13.04
2022-12-31T01:49:19.157Z,13.03
2022-12-31T01:50:19.317Z,13.06
2022-12-31T01:51:19.412Z,13.06
2022-12-31T01:52:19.559Z,13.07
2022-12-31T01:53:19.722Z,13.06
2022-12-31T01:54:19.875Z,13.06
2022-12-31T01:55:20.020Z,13.03
2022-12-31T01:56:20.084Z,13.04
2022-12-31T01:57:20.258Z,13.01
2022-12-31T01:58:20.318Z,13.01
2022-12-31T01:59:20.472Z,12.99
2022-12-31T02:00:20.596Z,12.98
2022-12-31T02:01:20.806Z,12.98
2022-12-31T02:02:20.995Z,12.95
2022-12-31T02:03:21.030Z,12.94
2022-12-31T02:04:21.109Z,12.98
2022-12-31T02:05:21.254Z,12.96
2022-12-31T02:06:21.410Z,12.98
2022-12-31T02:07:21.547Z,12.96
2022-12-31T02:08:21.716Z,12.98
2022-12-31T02:09:22.764Z,12.98
2022-12-31T02:10:21.962Z,12.99
2022-12-31T02:11:22.110Z,12.98
2022-12-31T02:12:22.202Z,12.96
2022-12-31T02:13:22.351Z,12.95
2022-12-31T02:14:22.503Z,12.96
2022-12-31T02:15:22.652Z,12.96
2022-12-31T02:16:22.800Z,12.92
2022-12-31T02:17:22.908Z,12.94
2022-12-31T02:18:22.982Z,12.94
2022-12-31T02:19:23.131Z,12.92
2022-12-31T02:20:23.245Z,12.94
2022-12-31T02:21:23.362Z,12.92
2022-12-31T02:22:23.490Z,12.88
2022-12-31T02:23:23.658Z,12.94
2022-12-31T02:24:23.774Z,12.91
2022-12-31T02:25:23.924Z,12.92
2022-12-31T02:26:24.069Z,12.91
2022-12-31T02:27:24.208Z,12.94
2022-12-31T02:28:24.352Z,12.92
2022-12-31T02:29:24.579Z,12.92
2022-12-31T02:30:24.670Z,12.94
2022-12-31T02:31:24.838Z,12.92
2022-12-31T02:32:24.913Z,12.95
2022-12-31T02:33:25.988Z,12.95
2022-12-31T02:34:25.306Z,12.95
2022-12-31T02:35:25.335Z,12.96
2022-12-31T02:36:25.467Z,12.98
2022-12-31T02:37:25.598Z,12.94
2022-12-31T02:38:25.743Z,12.96
2022-12-31T02:39:25.930Z,13.01
2022-12-31T02:40:26.014Z,12.99
2022-12-31T02:41:26.106Z,12.98
2022-12-31T02:42:26.245Z,12.98
2022-12-31T02:43:26.385Z,13.01
2022-12-31T02:44:26.526Z,12.99
2022-12-31T02:45:26.673Z,12.99
2022-12-31T02:46:26.835Z,12.99
2022-12-31T02:47:26.895Z,13.01
2022-12-31T02:48:27.051Z,12.99
2022-12-31T02:49:27.155Z,12.99
2022-12-31T02:50:27.301Z,13.01
2022-12-31T02:51:27.412Z,13.09
2022-12-31T02:52:27.543Z,13.03
2022-12-31T02:53:27.681Z,13.01
2022-12-31T02:54:27.801Z,13.07
2022-12-31T02:55:27.945Z,13.09
2022-12-31T02:56:28.051Z,13.14
2022-12-31T02:57:28.214Z,13.14
2022-12-31T02:58:28.362Z,13.17
2022-12-31T02:59:28.455Z,13.25
2022-12-31T03:00:28.685Z,13.21
2022-12-31T03:01:28.887Z,13.35
2022-12-31T03:02:28.930Z,13.32
2022-12-31T03:03:28.995Z,13.41
2022-12-31T03:04:29.097Z,13.47
2022-12-31T03:05:29.253Z,13.50
2022-12-31T03:06:29.392Z,13.51
2022-12-31T03:07:29.532Z,13.48
2022-12-31T03:08:29.691Z,13.51
2022-12-31T03:09:29.838Z,13.50
2022-12-31T03:10:29.958Z,13.55
2022-12-31T03:11:30.130Z,13.61
2022-12-31T03:12:30.201Z,13.57
2022-12-31T03:13:30.361Z,13.55
2022-12-31T03:14:30.450Z,13.44
2022-12-31T03:15:30.577Z,13.36
2022-12-31T03:16:30.801Z,13.29
2022-12-31T03:17:30.843Z,13.21
2022-12-31T03:18:30.982Z,13.16
2022-12-31T03:19:31.112Z,13.07
2022-12-31T03:20:31.243Z,12.95
2022-12-31T03:21:31.505Z,12.87
2022-12-31T03:22:31.507Z,12.81
2022-12-31T03:23:31.603Z,12.71
2022-12-31T03:24:31.721Z,12.69
2022-12-31T03:25:31.864Z,12.67
2022-12-31T03:26:32.011Z,12.66
2022-12-31T03:27:32.202Z,12.63
2022-12-31T03:28:32.280Z,12.63
2022-12-31T03:29:32.422Z,12.59
2022-12-31T03:30:32.615Z,12.56
2022-12-31T03:31:32.807Z,12.55
2022-12-31T03:32:32.922Z,12.51
2022-12-31T03:33:33.008Z,12.51
2022-12-31T03:34:33.103Z,12.44
2022-12-31T03:35:33.247Z,12.41
2022-12-31T03:36:33.379Z,12.44
2022-12-31T03:37:33.524Z,12.41
2022-12-31T03:38:33.634Z,12.43
2022-12-31T03:39:33.842Z,12.40
2022-12-31T03:40:33.900Z,12.40
2022-12-31T03:41:34.048Z,12.43
2022-12-31T03:42:34.179Z,12.43
2022-12-31T03:43:34.304Z,12.44
2022-12-31T03:44:34.400Z,12.44
2022-12-31T03:45:34.557Z,12.49
2022-12-31T03:46:34.632Z,12.52
2022-12-31T03:47:34.805Z,12.55
2022-12-31T03:48:34.922Z,12.52
2022-12-31T03:49:35.105Z,12.52
2022-12-31T03:50:35.193Z,12.58
2022-12-31T03:51:35.353Z,12.59
2022-12-31T03:52:35.538Z,12.58
2022-12-31T03:53:35.667Z,12.56
2022-12-31T03:54:35.814Z,12.61
2022-12-31T03:55:35.954Z,12.61
2022-12-31T03:56:36.082Z,12.59
2022-12-31T03:57:36.229Z,12.61
2022-12-31T03:58:36.373Z,12.66
2022-12-31T03:59:36.490Z,12.66
2022-12-31T04:00:36.637Z,12.66
2022-12-31T04:01:36.875Z,12.63
2022-12-31T04:02:37.011Z,12.67
2022-12-31T04:03:37.022Z,12.63
2022-12-31T04:04:37.130Z,12.63
2022-12-31T04:05:37.221Z,12.67
2022-12-31T04:06:37.382Z,12.69
2022-12-31T04:07:37.475Z,12.63
2022-12-31T04:08:37.588Z,12.67
2022-12-31T04:09:37.698Z,12.67
2022-12-31T04:10:37.812Z,12.67
2022-12-31T04:11:37.984Z,12.70
2022-12-31T04:12:38.093Z,12.71
2022-12-31T04:13:38.243Z,12.69
2022-12-31T04:14:38.379Z,12.69
2022-12-31T04:15:38.519Z,12.69
2022-12-31T04:16:38.711Z,12.71
2022-12-31T04:17:38.811Z,12.71
2022-12-31T04:18:38.935Z,12.71
2022-12-31T04:19:39.067Z,12.74
2022-12-31T04:20:39.199Z,12.80
2022-12-31T04:21:39.348Z,12.74
2022-12-31T04:22:39.517Z,12.74
2022-12-31T04:23:39.680Z,12.77
2022-12-31T04:24:39.800Z,12.80
2022-12-31T04:25:39.969Z,12.77
2022-12-31T04:26:40.102Z,12.77
2022-12-31T04:27:40.278Z,12.80
2022-12-31T04:28:41.831Z,12.85
2022-12-31T04:29:40.487Z,12.81
2022-12-31T04:30:40.588Z,12.87
2022-12-31T04:31:40.738Z,12.89
2022-12-31T04:32:40.810Z,12.89
2022-12-31T04:33:41.163Z,12.89
2022-12-31T04:34:41.133Z,12.95
2022-12-31T04:35:41.290Z,12.92
2022-12-31T04:36:41.665Z,12.98
2022-12-31T04:37:41.567Z,12.98
2022-12-31T04:38:41.662Z,12.98
2022-12-31T04:39:41.788Z,13.01
2022-12-31T04:40:41.917Z,13.09
2022-12-31T04:41:42.080Z,13.10
2022-12-31T04:42:42.221Z,13.07
2022-12-31T04:43:42.362Z,13.07
2022-12-31T04:44:42.452Z,13.12
2022-12-31T04:45:42.655Z,13.01
2022-12-31T04:46:42.811Z,13.06
2022-12-31T04:47:42.885Z,13.06
2022-12-31T04:48:43.052Z,13.07
2022-12-31T04:49:43.150Z,13.09
2022-12-31T04:50:43.281Z,13.10
2022-12-31T04:51:44.155Z,13.10
2022-12-31T04:52:43.529Z,13.09
2022-12-31T04:53:43.716Z,13.16
2022-12-31T04:54:43.802Z,13.14
2022-12-31T04:55:43.940Z,13.16
2022-12-31T04:56:44.074Z,13.19
2022-12-31T04:57:44.164Z,13.21
2022-12-31T04:58:44.313Z,13.21
2022-12-31T04:59:44.413Z,13.24
2022-12-31T05:00:44.542Z,13.25
2022-12-31T05:01:44.757Z,13.27
2022-12-31T05:02:44.988Z,13.29
2022-12-31T05:03:45.018Z,13.44
2022-12-31T05:04:45.090Z,13.47
2022-12-31T05:05:45.224Z,13.50
2022-12-31T05:06:45.368Z,13.53
2022-12-31T05:07:45.498Z,13.54
2022-12-31T05:08:45.577Z,13.55
2022-12-31T05:09:45.721Z,13.63
2022-12-31T05:10:45.885Z,13.55
2022-12-31T05:11:46.031Z,13.68
2022-12-31T05:12:46.170Z,13.72
2022-12-31T05:13:46.261Z,13.75
2022-12-31T05:14:46.412Z,13.79
2022-12-31T05:15:46.569Z,13.81
2022-12-31T05:16:46.672Z,13.81
2022-12-31T05:17:46.834Z,13.87
2022-12-31T05:18:46.969Z,13.87
2022-12-31T05:19:47.091Z,13.86
2022-12-31T05:20:47.223Z,13.84
2022-12-31T05:21:47.351Z,13.93
2022-12-31T05:22:47.511Z,13.94
2022-12-31T05:23:47.650Z,14.01
2022-12-31T05:24:47.778Z,14.09
2022-12-31T05:25:47.911Z,14.12
2022-12-31T05:26:48.033Z,14.13
2022-12-31T05:27:48.163Z,14.19
2022-12-31T05:28:48.319Z,14.23
2022-12-31T05:29:48.466Z,14.20
2022-12-31T05:30:48.648Z,14.23
2022-12-31T05:31:48.707Z,14.27
2022-12-31T05:32:48.970Z,14.31
2022-12-31T05:33:49.038Z,14.38
2022-12-31T05:34:49.128Z,14.41
2022-12-31T05:35:49.261Z,14.48
2022-12-31T05:36:49.401Z,14.64
2022-12-31T05:37:49.529Z,14.75
2022-12-31T05:38:49.708Z,14.78
2022-12-31T05:39:49.768Z,14.85
2022-12-31T05:40:49.888Z,14.82
2022-12-31T05:41:50.028Z,14.82
2022-12-31T05:42:50.163Z,15.04
2022-12-31T05:43:50.317Z,15.09
2022-12-31T05:44:50.495Z,15.01
2022-12-31T05:45:50.681Z,15.12
2022-12-31T05:46:50.790Z,15.15
2022-12-31T05:47:50.857Z,15.23
2022-12-31T05:48:51.038Z,15.38
2022-12-31T05:49:51.099Z,15.55
2022-12-31T05:50:51.237Z,15.48
2022-12-31T05:51:51.376Z,15.46
2022-12-31T05:52:51.528Z,15.46
2022-12-31T05:53:51.698Z,15.44
2022-12-31T05:54:51.840Z,15.55
2022-12-31T05:55:51.968Z,15.51
2022-12-31T05:56:52.111Z,15.48
2022-12-31T05:57:52.228Z,15.48
2022-12-31T05:58:52.378Z,15.49
2022-12-31T05:59:52.482Z,15.53
2022-12-31T06:00:52.633Z,15.56
2022-12-31T06:01:52.779Z,15.58
2022-12-31T06:02:52.993Z,15.58
2022-12-31T06:03:53.042Z,15.59
2022-12-31T06:04:53.484Z,15.73
2022-12-31T06:05:53.299Z,15.64
2022-12-31T06:06:53.442Z,15.67
2022-12-31T06:07:53.572Z,15.70
2022-12-31T06:08:53.739Z,15.73
2022-12-31T06:09:53.866Z,15.80
2022-12-31T06:10:54.010Z,15.70
2022-12-31T06:11:54.160Z,15.74
2022-12-31T06:12:54.300Z,15.91
2022-12-31T06:13:54.498Z,15.96
2022-12-31T06:14:54.548Z,15.91
2022-12-31T06:15:54.765Z,15.91
2022-12-31T06:16:54.842Z,15.89
2022-12-31T06:17:55.000Z,15.89
2022-12-31T06:18:55.098Z,15.81
2022-12-31T06:19:55.969Z,15.77
2022-12-31T06:20:55.436Z,15.68
2022-12-31T06:21:55.569Z,15.62
2022-12-31T06:22:55.667Z,15.55
2022-12-31T06:23:55.803Z,15.53
2022-12-31T06:24:56.012Z,15.53
2022-12-31T06:25:56.058Z,15.51
2022-12-31T06:26:56.177Z,15.41
2022-12-31T06:27:56.370Z,15.35
2022-12-31T06:28:56.463Z,15.34
2022-12-31T06:29:56.541Z,15.48
2022-12-31T06:30:56.795Z,15.56
2022-12-31T06:31:56.816Z,15.68
2022-12-31T06:32:56.956Z,15.73
2022-12-31T06:33:57.051Z,15.70
2022-12-31T06:34:57.230Z,15.66
2022-12-31T06:35:57.367Z,15.66
2022-12-31T06:36:57.436Z,15.84
2022-12-31T06:37:57.583Z,15.85
2022-12-31T06:38:57.746Z,15.99
2022-12-31T06:39:57.849Z,16.03
2022-12-31T06:40:57.984Z,15.99
2022-12-31T06:41:58.122Z,15.96
2022-12-31T06:43:00.439Z,15.96
2022-12-31T06:43:58.414Z,15.98
2022-12-31T06:44:58.580Z,16.01
2022-12-31T06:45:58.707Z,15.99
2022-12-31T06:46:58.850Z,16.01
2022-12-31T06:47:58.978Z,16.04
2022-12-31T06:48:59.146Z,15.99
2022-12-31T06:49:59.287Z,15.95
2022-12-31T06:50:59.455Z,15.99
2022-12-31T06:51:59.610Z,16.04
2022-12-31T06:52:59.747Z,16.04
2022-12-31T06:53:59.891Z,15.95
2022-12-31T06:55:00.052Z,15.92
2022-12-31T06:56:00.195Z,15.96
2022-12-31T06:57:00.331Z,16.10
2022-12-31T06:58:00.497Z,16.16
2022-12-31T06:59:00.680Z,16.08
2022-12-31T07:00:00.802Z,16.18
2022-12-31T07:01:00.965Z,16.30
2022-12-31T07:02:01.236Z,16.29
2022-12-31T07:03:01.262Z,16.27
2022-12-31T07:04:01.348Z,16.16
2022-12-31T07:05:01.468Z,16.18
2022-12-31T07:06:01.562Z,16.13
2022-12-31T07:07:01.709Z,16.22
2022-12-31T07:08:01.840Z,16.34
2022-12-31T07:09:01.985Z,16.48
2022-12-31T07:10:02.101Z,16.50
2022-12-31T07:11:02.253Z,16.50
2022-12-31T07:12:02.308Z,16.51
2022-12-31T07:13:02.451Z,16.50
2022-12-31T07:14:02.591Z,16.52
2022-12-31T07:15:02.730Z,16.54
2022-12-31T07:16:02.885Z,16.55
2022-12-31T07:17:02.949Z,16.55
2022-12-31T07:18:03.026Z,16.47
2022-12-31T07:19:03.163Z,16.42
2022-12-31T07:20:03.311Z,16.41
2022-12-31T07:21:03.420Z,16.44
2022-12-31T07:22:03.569Z,16.48
2022-12-31T07:23:03.669Z,16.65
2022-12-31T07:24:03.827Z,16.62
2022-12-31T07:25:04.018Z,16.66
2022-12-31T07:26:04.098Z,16.66
2022-12-31T07:27:04.242Z,16.59
2022-12-31T07:28:04.347Z,16.57
2022-12-31T07:29:04.522Z,16.54
2022-12-31T07:30:04.800Z,16.55
2022-12-31T07:31:04.805Z,16.52
2022-12-31T07:32:04.902Z,16.57
2022-12-31T07:33:05.027Z,16.57
2022-12-31T07:34:05.112Z,16.65
2022-12-31T07:35:05.331Z,16.65
2022-12-31T07:36:05.455Z,16.62
2022-12-31T07:37:05.579Z,16.60
2022-12-31T07:38:05.777Z,16.66
2022-12-31T07:39:05.882Z,16.80
2022-12-31T07:40:06.083Z,16.78
2022-12-31T07:41:09.696Z,16.75
2022-12-31T07:42:06.289Z,16.75
2022-12-31T07:43:06.603Z,16.78
2022-12-31T07:44:06.655Z,16.78
2022-12-31T07:45:06.784Z,16.81
2022-12-31T07:46:06.963Z,16.80
2022-12-31T07:47:07.095Z,16.77
2022-12-31T07:48:07.177Z,16.73
2022-12-31T07:49:07.315Z,16.80
2022-12-31T07:50:07.403Z,16.77
2022-12-31T07:51:07.591Z,16.82
2022-12-31T07:52:07.729Z,16.85
2022-12-31T07:53:07.826Z,16.87
2022-12-31T07:54:13.621Z,16.85
2022-12-31T07:55:09.058Z,16.81
2022-12-31T07:56:08.126Z,16.82
2022-12-31T07:57:08.346Z,16.85
2022-12-31T07:58:08.446Z,16.77
2022-12-31T07:59:08.587Z,16.85
2022-12-31T08:00:08.656Z,16.90
2022-12-31T08:01:08.920Z,16.88
2022-12-31T08:02:08.988Z,16.78
2022-12-31T08:03:09.020Z,16.84
2022-12-31T08:04:09.124Z,16.81
2022-12-31T08:05:09.240Z,16.82
2022-12-31T08:06:09.351Z,16.80
2022-12-31T08:07:09.505Z,16.67
2022-12-31T08:08:09.593Z,16.75
2022-12-31T08:09:09.718Z,16.82
2022-12-31T08:10:15.640Z,16.85
2022-12-31T08:11:10.976Z,16.88
2022-12-31T08:12:10.066Z,16.87
2022-12-31T08:13:10.185Z,16.87
2022-12-31T08:14:10.282Z,16.88
2022-12-31T08:15:10.474Z,16.88
2022-12-31T08:16:10.636Z,16.96
2022-12-31T08:17:10.690Z,16.90
2022-12-31T08:18:10.922Z,16.96
2022-12-31T08:19:10.977Z,16.96
2022-12-31T08:20:11.081Z,16.92
2022-12-31T08:21:11.248Z,16.90
2022-12-31T08:22:11.328Z,16.96
2022-12-31T08:23:11.412Z,17.00
2022-12-31T08:24:11.556Z,17.05
2022-12-31T08:25:11.673Z,16.99
2022-12-31T08:26:11.758Z,17.03
2022-12-31T08:27:11.951Z,16.95
2022-12-31T08:28:12.091Z,16.90
2022-12-31T08:29:12.256Z,16.91
2022-12-31T08:30:12.496Z,16.88
2022-12-31T08:31:12.523Z,16.87
2022-12-31T08:32:12.705Z,16.80
2022-12-31T08:33:12.735Z,16.84
2022-12-31T08:34:13.504Z,16.90
2022-12-31T08:35:13.189Z,17.00
2022-12-31T08:36:13.058Z,16.96
2022-12-31T08:37:13.289Z,16.96
2022-12-31T08:38:13.324Z,17.00
2022-12-31T08:39:13.479Z,16.99
2022-12-31T08:40:13.641Z,16.95
2022-12-31T08:41:13.701Z,16.90
2022-12-31T08:42:13.837Z,16.87
2022-12-31T08:43:13.997Z,16.85
2022-12-31T08:44:14.077Z,16.87
2022-12-31T08:45:14.198Z,16.90
2022-12-31T08:46:14.372Z,16.90
2022-12-31T08:47:14.484Z,16.87
2022-12-31T08:48:14.609Z,16.78
2022-12-31T08:49:15.675Z,16.80
2022-12-31T08:50:14.877Z,16.81
2022-12-31T08:51:14.924Z,16.91
2022-12-31T08:52:15.039Z,16.91
2022-12-31T08:53:15.366Z,16.91
2022-12-31T08:54:15.305Z,16.96
2022-12-31T08:55:15.437Z,16.98
2022-12-31T08:56:15.519Z,16.88
2022-12-31T08:57:15.701Z,16.82
2022-12-31T08:58:15.796Z,16.96
2022-12-31T08:59:15.913Z,16.90
2022-12-31T09:00:16.015Z,16.88
2022-12-31T09:01:16.896Z,16.82
2022-12-31T09:02:16.297Z,16.85
2022-12-31T09:03:16.375Z,16.95
2022-12-31T09:04:16.550Z,16.92
2022-12-31T09:05:16.600Z,16.91
2022-12-31T09:06:16.704Z,16.91
2022-12-31T09:07:16.849Z,16.91
2022-12-31T09:08:16.954Z,16.90
2022-12-31T09:09:17.107Z,16.92
2022-12-31T09:10:17.217Z,16.88
2022-12-31T09:11:22.839Z,16.90
2022-12-31T09:12:18.475Z,16.99
2022-12-31T09:13:17.644Z,16.99
2022-12-31T09:14:17.717Z,17.00
2022-12-31T09:15:17.859Z,17.14
2022-12-31T09:16:18.056Z,17.10
2022-12-31T09:17:18.124Z,17.14
2022-12-31T09:18:18.267Z,17.17
2022-12-31T09:19:18.424Z,17.14
2022-12-31T09:20:18.520Z,17.15
2022-12-31T09:21:18.683Z,17.21
2022-12-31T09:22:18.784Z,17.20
2022-12-31T09:23:18.964Z,17.21
2022-12-31T09:24:19.104Z,17.20
2022-12-31T09:25:19.223Z,17.21
2022-12-31T09:26:19.354Z,17.27
2022-12-31T09:27:27.014Z,17.20
2022-12-31T09:28:20.572Z,17.32
2022-12-31T09:29:19.749Z,17.40
2022-12-31T09:30:19.855Z,17.42
2022-12-31T09:31:19.991Z,17.35
2022-12-31T09:32:20.052Z,17.28
2022-12-31T09:33:20.187Z,17.18
2022-12-31T09:34:20.347Z,17.32
2022-12-31T09:35:20.471Z,17.35
2022-12-31T09:36:20.573Z,17.21
2022-12-31T09:37:21.136Z,17.10
2022-12-31T09:38:21.122Z,17.10
2022-12-31T09:39:21.118Z,17.18
2022-12-31T09:40:21.126Z,17.22
2022-12-31T09:41:21.201Z,17.00
2022-12-31T09:42:21.354Z,16.81
2022-12-31T09:43:21.449Z,16.70
2022-12-31T09:44:21.595Z,16.75
2022-12-31T09:45:21.747Z,16.73
2022-12-31T09:46:21.886Z,16.67
2022-12-31T09:47:21.958Z,16.54
2022-12-31T09:48:22.120Z,16.45
2022-12-31T09:49:22.231Z,16.34
2022-12-31T09:50:22.411Z,16.30
2022-12-31T09:51:25.429Z,16.18
2022-12-31T09:52:22.659Z,16.25
2022-12-31T09:53:22.784Z,16.18
2022-12-31T09:54:22.909Z,16.17
2022-12-31T09:55:23.055Z,16.22
2022-12-31T09:56:23.178Z,16.23
2022-12-31T09:57:23.255Z,16.29
2022-12-31T09:58:23.395Z,16.47
2022-12-31T09:59:23.575Z,16.48
2022-12-31T10:00:23.685Z,16.55
2022-12-31T10:01:23.841Z,16.55
2022-12-31T10:02:24.165Z,16.60
2022-12-31T10:03:24.053Z,16.55
2022-12-31T10:04:24.167Z,16.47
2022-12-31T10:05:24.290Z,16.47
2022-12-31T10:06:24.407Z,16.48
2022-12-31T10:07:24.500Z,16.33
2022-12-31T10:08:24.616Z,16.33
2022-12-31T10:09:24.709Z,16.33
2022-12-31T10:10:24.867Z,16.36
2022-12-31T10:11:25.027Z,16.32
2022-12-31T10:12:25.124Z,16.26
2022-12-31T10:13:25.264Z,16.27
2022-12-31T10:14:25.411Z,16.26
2022-12-31T10:15:25.560Z,16.17
2022-12-31T10:16:25.731Z,16.23
2022-12-31T10:17:25.883Z,16.23
2022-12-31T10:18:25.978Z,16.18
2022-12-31T10:19:26.108Z,16.16
2022-12-31T10:20:26.189Z,16.26
2022-12-31T10:21:26.335Z,16.33
2022-12-31T10:22:26.457Z,16.32
2022-12-31T10:23:26.570Z,16.23
2022-12-31T10:24:26.674Z,16.13
2022-12-31T10:25:38.420Z,16.27
2022-12-31T10:26:27.917Z,16.30
2022-12-31T10:27:27.011Z,16.41
2022-12-31T10:28:27.189Z,16.50
2022-12-31T10:29:27.267Z,16.54
2022-12-31T10:30:27.408Z,16.54
2022-12-31T10:31:27.513Z,16.54
2022-12-31T10:32:31.340Z,16.55
2022-12-31T10:33:27.753Z,16.52
2022-12-31T10:34:27.927Z,16.50
2022-12-31T10:35:28.009Z,16.48
2022-12-31T10:36:28.145Z,16.45
2022-12-31T10:37:29.008Z,16.41
2022-12-31T10:38:28.445Z,16.40
2022-12-31T10:39:28.526Z,16.34
2022-12-31T10:40:28.668Z,16.42
2022-12-31T10:41:28.775Z,16.50
2022-12-31T10:42:28.879Z,16.51
2022-12-31T10:43:29.026Z,16.55
2022-12-31T10:44:30.656Z,16.62
2022-12-31T10:45:29.244Z,16.67
2022-12-31T10:46:29.495Z,16.73
2022-12-31T10:47:30.100Z,16.85
2022-12-31T10:48:29.707Z,16.92
2022-12-31T10:49:29.798Z,16.91
2022-12-31T10:50:29.889Z,16.91
2022-12-31T10:51:29.986Z,16.92
2022-12-31T10:52:30.172Z,17.00
2022-12-31T10:53:30.969Z,17.07
2022-12-31T10:54:30.400Z,17.12
2022-12-31T10:55:30.463Z,17.10
2022-12-31T10:56:30.585Z,17.15
2022-12-31T10:57:30.746Z,17.25
2022-12-31T10:58:30.875Z,17.24
2022-12-31T10:59:30.955Z,17.22
2022-12-31T11:00:31.098Z,17.21
2022-12-31T11:01:31.364Z,17.33
2022-12-31T11:02:31.559Z,17.36
2022-12-31T11:03:31.538Z,17.45
2022-12-31T11:04:31.647Z,17.33
2022-12-31T11:05:31.872Z,17.32
2022-12-31T11:06:31.855Z,17.28
2022-12-31T11:07:32.065Z,17.22
2022-12-31T11:08:32.075Z,17.20
2022-12-31T11:09:34.680Z,17.21
2022-12-31T11:10:32.375Z,17.25
2022-12-31T11:11:32.454Z,17.30
2022-12-31T11:12:32.612Z,17.24
2022-12-31T11:13:32.719Z,17.32
2022-12-31T11:14:32.886Z,17.28
2022-12-31T11:15:33.078Z,17.09
2022-12-31T11:16:33.228Z,16.87
2022-12-31T11:17:33.274Z,16.72
2022-12-31T11:18:33.416Z,16.62
2022-12-31T11:19:33.526Z,16.59
2022-12-31T11:20:33.671Z,16.66
2022-12-31T11:21:37.872Z,16.67
2022-12-31T11:22:34.891Z,16.87
2022-12-31T11:23:34.004Z,16.92
2022-12-31T11:24:34.150Z,17.05
2022-12-31T11:25:34.282Z,17.06
2022-12-31T11:26:34.445Z,17.02
2022-12-31T11:27:34.526Z,17.00
2022-12-31T11:28:34.675Z,17.02
2022-12-31T11:29:34.803Z,17.10
2022-12-31T11:30:34.949Z,17.14
2022-12-31T11:31:35.125Z,17.06
2022-12-31T11:32:35.223Z,17.14
2022-12-31T11:33:35.364Z,17.20
2022-12-31T11:34:35.466Z,17.32
2022-12-31T11:35:35.583Z,17.35
2022-12-31T11:36:35.663Z,17.39
2022-12-31T11:37:35.916Z,17.40
2022-12-31T11:38:35.974Z,17.36
2022-12-31T11:39:36.072Z,17.45
2022-12-31T11:40:36.183Z,17.45
2022-12-31T11:41:36.285Z,17.43
2022-12-31T11:42:36.448Z,17.47
2022-12-31T11:43:36.538Z,17.51
2022-12-31T11:44:36.674Z,17.58
2022-12-31T11:45:36.832Z,17.53
2022-12-31T11:46:37.052Z,17.53
2022-12-31T11:47:49.710Z,17.49
2022-12-31T11:48:38.187Z,17.49
2022-12-31T11:49:37.277Z,17.54
2022-12-31T11:50:37.428Z,17.53
2022-12-31T11:51:37.526Z,17.46
2022-12-31T11:52:37.673Z,17.54
2022-12-31T11:53:37.825Z,17.49
2022-12-31T11:54:38.056Z,17.49
2022-12-31T11:55:38.135Z,17.51
2022-12-31T11:56:38.255Z,17.57
2022-12-31T11:57:38.409Z,17.63
2022-12-31T11:58:38.485Z,17.60
2022-12-31T11:59:38.657Z,17.58
2022-12-31T12:00:38.734Z,17.57
2022-12-31T12:01:38.950Z,17.54
2022-12-31T12:02:39.028Z,17.53
2022-12-31T12:03:39.151Z,17.55
2022-12-31T12:04:39.253Z,17.62
2022-12-31T12:05:39.321Z,17.63
2022-12-31T12:06:39.528Z,17.58
2022-12-31T12:07:39.648Z,17.53
2022-12-31T12:09:39.550Z,17.55
2022-12-31T12:10:40.400Z,17.53
2022-12-31T12:11:39.771Z,17.58
2022-12-31T12:12:39.902Z,17.65
2022-12-31T12:13:40.053Z,17.66
2022-12-31T12:14:40.211Z,17.62
2022-12-31T12:15:40.429Z,17.60
2022-12-31T12:16:40.472Z,17.71
2022-12-31T12:17:40.572Z,17.77
2022-12-31T12:18:40.743Z,17.79
2022-12-31T12:19:40.970Z,17.73
2022-12-31T12:20:40.940Z,17.68
2022-12-31T12:21:41.088Z,17.68
2022-12-31T12:22:45.124Z,17.71
2022-12-31T12:23:42.319Z,17.71
2022-12-31T12:24:41.468Z,17.65
2022-12-31T12:25:41.609Z,17.66
2022-12-31T12:26:41.723Z,17.65
2022-12-31T12:27:41.852Z,17.58
2022-12-31T12:28:44.378Z,17.57
2022-12-31T12:29:42.120Z,17.57
2022-12-31T12:30:42.208Z,17.57
2022-12-31T12:31:42.602Z,17.54
2022-12-31T12:32:42.510Z,17.46
2022-12-31T12:33:42.603Z,17.47
2022-12-31T12:34:49.197Z,17.57
2022-12-31T12:35:43.860Z,17.58
2022-12-31T12:36:43.031Z,17.57
2022-12-31T12:37:43.125Z,17.53
2022-12-31T12:38:43.219Z,17.51
2022-12-31T12:39:43.351Z,17.47
2022-12-31T12:40:43.516Z,17.46
2022-12-31T12:41:43.651Z,17.46
2022-12-31T12:42:43.807Z,17.45
2022-12-31T12:43:43.902Z,17.42
2022-12-31T12:44:44.040Z,17.38
2022-12-31T12:45:47.788Z,17.38
2022-12-31T12:46:48.296Z,17.36
2022-12-31T12:47:44.388Z,17.35
2022-12-31T12:48:44.539Z,17.39
2022-12-31T12:49:44.619Z,17.45
2022-12-31T12:50:44.747Z,17.36
2022-12-31T12:51:44.892Z,17.38
2022-12-31T12:52:45.041Z,17.39
2022-12-31T12:53:45.159Z,17.36
2022-12-31T12:54:45.307Z,17.33